createdAt,value
2022-08-23T00:02:27.097Z,15.49
2022-08-23T00:05:09.143Z,15.55
2022-08-23T00:07:42.251Z,15.61
2022-08-23T00:10:11.965Z,15.51
2022-08-23T00:12:39.511Z,15.56
2022-08-23T00:15:08.024Z,15.67
2022-08-23T00:17:35.612Z,15.57
2022-08-23T00:20:08.437Z,15.51
2022-08-23T00:22:35.995Z,15.52
2022-08-23T00:25:03.156Z,15.54
2022-08-23T00:27:29.662Z,15.52
2022-08-23T00:29:57.399Z,15.60
2022-08-23T00:32:30.130Z,15.59
2022-08-23T00:34:57.157Z,15.63
2022-08-23T00:37:24.567Z,15.58
2022-08-23T00:39:51.576Z,15.64
2022-08-23T00:42:56.621Z,15.64
2022-08-23T00:46:05.532Z,15.63
2022-08-23T00:48:33.536Z,15.57
2022-08-23T00:51:08.140Z,15.55
2022-08-23T00:53:38.897Z,15.57
2022-08-23T00:56:12.212Z,15.58
2022-08-23T00:58:39.469Z,15.54
2022-08-23T01:01:06.889Z,15.57
2022-08-23T01:03:38.520Z,15.52
2022-08-23T01:06:34.800Z,15.44
2022-08-23T01:09:10.973Z,15.47
2022-08-23T01:11:45.243Z,15.58
2022-08-23T01:14:27.847Z,15.53
2022-08-23T01:17:00.450Z,15.46
2022-08-23T01:19:40.838Z,15.47
2022-08-23T01:22:11.261Z,15.46
2022-08-23T01:25:06.312Z,15.43
2022-08-23T01:27:25.782Z,15.43
2022-08-23T01:29:52.299Z,15.44
2022-08-23T01:32:19.044Z,15.50
2022-08-23T01:34:51.493Z,15.42
2022-08-23T01:37:20.022Z,15.41
2022-08-23T01:39:46.539Z,15.46
2022-08-23T01:42:13.041Z,15.51
2022-08-23T01:44:39.656Z,15.46
2022-08-23T01:47:07.724Z,15.39
2022-08-23T01:49:35.122Z,15.37
2022-08-23T01:52:01.721Z,15.35
2022-08-23T01:54:29.272Z,15.35
2022-08-23T01:56:56.076Z,15.36
2022-08-23T01:59:22.747Z,15.37
2022-08-23T02:01:49.309Z,15.35
2022-08-23T02:04:15.883Z,15.53
2022-08-23T02:06:42.383Z,15.50
2022-08-23T02:09:17.864Z,15.41
2022-08-23T02:11:45.190Z,15.36
2022-08-23T02:14:15.239Z,15.43
2022-08-23T02:16:58.122Z,15.40
2022-08-23T02:19:34.932Z,15.49
2022-08-23T02:22:01.880Z,15.43
2022-08-23T02:24:28.405Z,15.48
2022-08-23T02:26:59.294Z,15.46
2022-08-23T02:29:29.629Z,15.47
2022-08-23T02:31:57.993Z,15.46
2022-08-23T02:34:25.559Z,15.44
2022-08-23T02:36:54.766Z,15.47
2022-08-23T02:39:21.261Z,15.38
2022-08-23T02:41:47.968Z,15.47
2022-08-23T02:44:14.485Z,15.46
2022-08-23T02:46:42.498Z,15.40
2022-08-23T02:49:09.068Z,15.37
2022-08-23T02:51:35.654Z,15.39
2022-08-23T02:54:02.215Z,15.39
2022-08-23T02:56:28.772Z,15.44
2022-08-23T02:58:55.325Z,15.40
2022-08-23T03:01:25.230Z,15.39
2022-08-23T03:03:52.156Z,15.43
2022-08-23T03:06:25.876Z,15.41
2022-08-23T03:08:56.636Z,15.44
2022-08-23T03:11:25.007Z,15.37
2022-08-23T03:13:52.490Z,15.40
2022-08-23T03:16:20.215Z,15.44
2022-08-23T03:18:47.630Z,15.37
2022-08-23T03:21:17.744Z,15.46
2022-08-23T03:23:44.887Z,15.45
2022-08-23T03:26:13.750Z,15.52
2022-08-23T03:28:42.850Z,15.48
2022-08-23T03:31:10.398Z,15.46
2022-08-23T03:33:38.265Z,15.38
2022-08-23T03:36:07.538Z,15.47
2022-08-23T03:38:35.222Z,15.35
2022-08-23T03:41:02.301Z,15.36
2022-08-23T03:43:29.365Z,15.36
2022-08-23T03:45:56.071Z,15.45
2022-08-23T03:48:22.657Z,15.40
2022-08-23T03:50:49.268Z,15.44
2022-08-23T03:53:16.611Z,15.43
2022-08-23T03:55:43.656Z,15.46
2022-08-23T03:58:11.316Z,15.45
2022-08-23T04:00:38.397Z,15.43
2022-08-23T04:03:05.216Z,15.34
2022-08-23T04:05:31.929Z,15.41
2022-08-23T04:07:58.673Z,15.46
2022-08-23T04:10:25.921Z,15.38
2022-08-23T04:12:54.855Z,15.40
2022-08-23T04:15:21.986Z,15.44
2022-08-23T04:17:48.910Z,15.41
2022-08-23T04:20:15.630Z,15.41
2022-08-23T04:22:42.265Z,15.35
2022-08-23T04:25:32.845Z,15.51
2022-08-23T04:27:57.837Z,15.51
2022-08-23T04:30:24.717Z,15.52
2022-08-23T04:32:52.328Z,15.51
2022-08-23T04:35:19.025Z,15.54
2022-08-23T04:37:45.498Z,15.60
2022-08-23T04:40:44.410Z,15.47
2022-08-23T04:43:10.938Z,15.53
2022-08-23T04:45:39.438Z,15.54
2022-08-23T04:48:06.598Z,15.51
2022-08-23T04:50:38.710Z,15.61
2022-08-23T04:53:05.243Z,15.62
2022-08-23T04:55:32.033Z,15.60
2022-08-23T04:58:02.957Z,15.59
2022-08-23T05:00:29.687Z,15.58
2022-08-23T05:02:56.382Z,15.73
2022-08-23T05:05:23.036Z,15.71
2022-08-23T05:07:49.585Z,15.72
2022-08-23T05:10:17.070Z,15.74
2022-08-23T05:12:43.663Z,15.77
2022-08-23T05:15:11.179Z,15.83
2022-08-23T05:17:39.603Z,15.81
2022-08-23T05:20:08.424Z,15.87
2022-08-23T05:22:39.763Z,15.95
2022-08-23T05:25:06.928Z,15.94
2022-08-23T05:27:33.697Z,16.03
2022-08-23T05:30:00.673Z,16.13
2022-08-23T05:32:31.502Z,16.09
2022-08-23T05:35:00.115Z,16.03
2022-08-23T05:37:26.857Z,16.12
2022-08-23T05:39:53.455Z,16.22
2022-08-23T05:42:20.102Z,16.19
2022-08-23T05:44:46.646Z,16.12
2022-08-23T05:47:15.844Z,16.19
2022-08-23T05:49:43.080Z,16.19
2022-08-23T05:52:14.032Z,16.23
2022-08-23T05:54:40.732Z,16.23
2022-08-23T05:57:07.326Z,16.28
2022-08-23T05:59:33.788Z,16.22
2022-08-23T06:02:00.459Z,16.19
2022-08-23T06:04:26.934Z,16.36
2022-08-23T06:06:56.433Z,16.45
2022-08-23T06:09:23.338Z,16.35
2022-08-23T06:11:49.876Z,16.59
2022-08-23T06:14:16.547Z,16.53
2022-08-23T06:16:46.439Z,16.48
2022-08-23T06:19:14.491Z,16.49
2022-08-23T06:21:41.891Z,16.54
2022-08-23T06:24:08.655Z,16.54
2022-08-23T06:26:38.315Z,16.53
2022-08-23T06:29:11.787Z,16.47
2022-08-23T06:31:49.289Z,16.61
2022-08-23T06:34:22.004Z,16.55
2022-08-23T06:36:55.204Z,16.54
2022-08-23T06:39:25.414Z,16.69
2022-08-23T06:41:52.567Z,16.63
2022-08-23T06:44:20.077Z,16.55
2022-08-23T06:46:48.761Z,16.52
2022-08-23T06:49:16.366Z,16.62
2022-08-23T06:51:51.102Z,16.51
2022-08-23T06:54:22.656Z,16.63
2022-08-23T06:56:54.082Z,16.67
2022-08-23T06:59:21.789Z,16.64
2022-08-23T07:01:54.367Z,16.50
2022-08-23T07:04:30.769Z,16.55
2022-08-23T07:06:59.140Z,16.54
2022-08-23T07:09:27.119Z,16.62
2022-08-23T07:11:54.247Z,16.52
2022-08-23T07:14:22.437Z,16.52
2022-08-23T07:16:52.537Z,16.46
2022-08-23T07:19:22.293Z,16.56
2022-08-23T07:21:56.251Z,16.65
2022-08-23T07:24:23.415Z,16.67
2022-08-23T07:26:52.086Z,16.71
2022-08-23T07:29:20.537Z,16.74
2022-08-23T07:31:54.647Z,16.64
2022-08-23T07:34:22.607Z,16.68
2022-08-23T07:36:51.142Z,16.75
2022-08-23T07:39:18.752Z,16.74
2022-08-23T07:41:46.907Z,16.75
2022-08-23T07:44:18.309Z,16.83
2022-08-23T07:46:46.637Z,16.85
2022-08-23T07:49:15.528Z,16.98
2022-08-23T07:51:45.912Z,16.94
2022-08-23T07:54:15.155Z,17.04
2022-08-23T07:56:41.916Z,17.10
2022-08-23T07:59:12.502Z,17.13
2022-08-23T08:01:41.456Z,16.98
2022-08-23T08:04:08.420Z,17.08
2022-08-23T08:06:41.285Z,17.01
2022-08-23T08:09:19.959Z,17.02
2022-08-23T08:11:49.551Z,17.15
2022-08-23T08:14:17.289Z,17.17
2022-08-23T08:16:47.365Z,17.17
2022-08-23T08:19:17.049Z,17.17
2022-08-23T08:21:47.287Z,17.18
2022-08-23T08:24:18.870Z,17.26
2022-08-23T08:26:46.671Z,17.28
2022-08-23T08:29:13.515Z,17.34
2022-08-23T08:31:42.679Z,17.43
2022-08-23T08:34:17.212Z,17.63
2022-08-23T08:36:53.752Z,17.60
2022-08-23T08:39:32.383Z,17.67
2022-08-23T08:42:36.173Z,17.70
2022-08-23T08:45:11.871Z,17.86
2022-08-23T08:47:45.988Z,17.82
2022-08-23T08:50:26.590Z,17.97
2022-08-23T08:53:16.379Z,18.00
2022-08-23T08:55:50.196Z,18.10
2022-08-23T08:58:48.442Z,18.20
2022-08-23T09:01:20.742Z,18.31
2022-08-23T09:03:50.828Z,18.39
2022-08-23T09:06:33.456Z,18.70
2022-08-23T09:09:35.272Z,18.67
2022-08-23T09:12:10.017Z,18.69
2022-08-23T09:14:49.612Z,18.64
2022-08-23T09:17:27.560Z,18.70
2022-08-23T09:19:59.126Z,18.75
2022-08-23T09:22:41.206Z,18.79
2022-08-23T09:25:14.391Z,18.83
2022-08-23T09:27:43.700Z,18.86
2022-08-23T09:30:16.010Z,19.00
2022-08-23T09:32:50.232Z,18.90
2022-08-23T09:35:25.960Z,19.07
2022-08-23T09:38:02.532Z,19.06
2022-08-23T09:40:41.442Z,19.17
2022-08-23T09:43:27.016Z,19.18
2022-08-23T09:45:53.623Z,19.17
2022-08-23T09:48:33.249Z,19.18
2022-08-23T09:51:22.970Z,19.08
2022-08-23T09:54:04.545Z,19.12
2022-08-23T09:56:36.960Z,19.01
2022-08-23T09:59:19.425Z,18.77
2022-08-23T10:01:55.747Z,18.89
2022-08-23T10:04:31.031Z,18.74
2022-08-23T10:06:57.796Z,18.83
2022-08-23T10:09:32.970Z,18.68
2022-08-23T10:12:01.292Z,18.63
2022-08-23T10:14:33.984Z,18.75
2022-08-23T10:17:26.670Z,18.72
2022-08-23T10:20:22.906Z,18.61
2022-08-23T10:23:15.562Z,18.57
2022-08-23T10:25:56.882Z,18.66
2022-08-23T10:29:08.738Z,18.71
2022-08-23T10:32:08.762Z,18.71
2022-08-23T10:34:57.551Z,18.56
2022-08-23T10:37:34.756Z,18.44
2022-08-23T10:40:19.852Z,18.47
2022-08-23T10:43:14.386Z,18.46
2022-08-23T10:45:45.829Z,18.57
2022-08-23T10:48:28.590Z,18.64
2022-08-23T10:51:10.569Z,18.60
2022-08-23T10:53:49.503Z,18.64
2022-08-23T10:56:21.988Z,18.66
2022-08-23T10:58:52.108Z,18.67
2022-08-23T11:01:26.778Z,18.61
2022-08-23T11:04:04.717Z,18.62
2022-08-23T11:06:37.246Z,18.64
2022-08-23T11:09:03.787Z,18.69
2022-08-23T11:11:43.174Z,18.57
2022-08-23T11:14:30.089Z,18.52
2022-08-23T11:16:59.862Z,18.71
2022-08-23T11:19:50.875Z,18.86
2022-08-23T11:22:23.296Z,18.98
2022-08-23T11:25:01.331Z,19.22
2022-08-23T11:27:34.898Z,19.37
2022-08-23T11:30:32.516Z,19.52
2022-08-23T11:33:20.848Z,19.53
2022-08-23T11:36:16.572Z,19.46
2022-08-23T11:38:49.550Z,19.49
2022-08-23T11:41:19.316Z,19.45
2022-08-23T11:44:14.764Z,19.50
2022-08-23T11:46:50.642Z,19.55
2022-08-23T11:49:29.702Z,19.45
2022-08-23T11:52:15.666Z,19.49
2022-08-23T11:54:45.678Z,19.57
2022-08-23T11:57:30.883Z,19.42
2022-08-23T12:00:11.415Z,19.51
2022-08-23T12:02:38.096Z,19.44
2022-08-23T12:05:23.060Z,19.56
2022-08-23T12:08:02.616Z,19.59
2022-08-23T12:10:41.632Z,19.41
2022-08-23T12:13:23.379Z,19.39
2022-08-23T12:16:05.319Z,19.46
2022-08-23T12:18:36.507Z,19.53
2022-08-23T12:21:06.157Z,19.40
2022-08-23T12:23:47.945Z,19.41
2022-08-23T12:26:52.004Z,19.52
2022-08-23T12:29:47.059Z,19.40
2022-08-23T12:32:50.753Z,19.49
2022-08-23T12:35:59.012Z,19.59
2022-08-23T12:38:48.941Z,19.55
2022-08-23T12:41:30.863Z,19.53
2022-08-23T12:44:00.304Z,19.51
2022-08-23T12:46:47.296Z,19.44
2022-08-23T12:49:33.294Z,19.56
2022-08-23T12:52:03.616Z,19.65
2022-08-23T12:54:38.375Z,19.69
2022-08-23T12:57:11.569Z,19.70
2022-08-23T13:00:24.657Z,19.73
2022-08-23T13:03:05.862Z,19.66
2022-08-23T13:05:40.823Z,19.73
2022-08-23T13:08:22.812Z,19.76
2022-08-23T13:11:07.372Z,19.77
2022-08-23T13:13:36.877Z,19.80
2022-08-23T13:16:42.919Z,19.72
2022-08-23T13:19:17.302Z,19.82
2022-08-23T13:21:45.200Z,19.78
2022-08-23T13:24:38.705Z,19.84
2022-08-23T13:27:27.254Z,19.98
2022-08-23T13:29:59.253Z,20.03
2022-08-23T13:32:41.964Z,20.04
2022-08-23T13:35:26.754Z,20.00
2022-08-23T13:37:57.206Z,19.87
2022-08-23T13:40:27.642Z,19.91
2022-08-23T13:43:02.538Z,19.93
2022-08-23T13:45:35.549Z,19.99
2022-08-23T13:48:10.993Z,20.07
2022-08-23T13:50:39.601Z,20.19
2022-08-23T13:53:15.908Z,20.26
2022-08-23T13:55:51.968Z,20.34
2022-08-23T13:58:34.265Z,20.22
2022-08-23T14:01:03.822Z,20.26
2022-08-23T14:03:34.341Z,20.06
2022-08-23T14:06:01.182Z,20.13
2022-08-23T14:08:29.023Z,20.18
2022-08-23T14:10:56.613Z,20.24
2022-08-23T14:13:28.745Z,20.28
2022-08-23T14:21:43.679Z,20.31
2022-08-23T14:24:12.006Z,20.28
2022-08-23T14:26:39.780Z,20.38
2022-08-23T14:29:23.138Z,20.35
2022-08-23T14:31:52.348Z,20.35
2022-08-23T14:34:20.932Z,20.44
2022-08-23T14:39:35.638Z,20.65
2022-08-23T14:42:03.501Z,20.76
2022-08-23T14:44:34.317Z,20.76
2022-08-23T14:47:03.257Z,20.79
2022-08-23T14:49:29.738Z,20.85
2022-08-23T14:51:56.274Z,20.83
2022-08-23T14:54:26.103Z,21.03
2022-08-23T14:56:53.340Z,21.09
2022-08-23T14:59:20.033Z,21.01
2022-08-23T15:01:49.178Z,21.07
2022-08-23T15:04:19.502Z,21.12
2022-08-23T15:07:13.957Z,21.05
2022-08-23T15:09:34.543Z,21.16
2022-08-23T15:14:49.285Z,20.98
2022-08-23T15:17:16.811Z,20.98
2022-08-23T15:19:44.143Z,21.16
2022-08-23T15:22:18.283Z,21.05
2022-08-23T15:24:46.531Z,21.19
2022-08-23T15:27:13.399Z,21.17
2022-08-23T15:29:40.515Z,21.17
2022-08-23T15:32:08.725Z,21.12
2022-08-23T15:34:38.275Z,21.13
2022-08-23T15:37:09.431Z,21.16
2022-08-23T15:39:36.361Z,21.09
2022-08-23T15:42:04.180Z,21.00
2022-08-23T15:44:31.640Z,20.96
2022-08-23T15:46:58.468Z,20.97
2022-08-23T15:49:29.958Z,21.00
2022-08-23T15:52:00.700Z,21.11
2022-08-23T15:54:27.325Z,21.22
2022-08-23T15:56:53.931Z,21.03
2022-08-23T15:59:21.712Z,21.23
2022-08-23T16:01:48.620Z,21.34
2022-08-23T16:04:15.167Z,21.25
2022-08-23T16:06:42.082Z,21.38
2022-08-23T16:09:17.521Z,21.44
2022-08-23T16:11:44.050Z,21.40
2022-08-23T16:14:10.711Z,21.31
2022-08-23T16:16:39.925Z,21.13
2022-08-23T16:19:08.183Z,21.05
2022-08-23T16:21:36.009Z,21.15
2022-08-23T16:24:02.705Z,21.11
2022-08-23T16:26:35.370Z,21.01
2022-08-23T16:29:04.592Z,20.91
2022-08-23T16:31:38.494Z,20.83
2022-08-23T16:34:07.964Z,20.66
2022-08-23T16:36:34.765Z,20.62
2022-08-23T16:39:01.254Z,20.59
2022-08-23T16:43:54.312Z,20.46
2022-08-23T16:46:23.504Z,20.35
2022-08-23T16:48:50.492Z,20.41
2022-08-23T16:51:17.961Z,20.46
2022-08-23T16:53:45.761Z,20.38
2022-08-23T16:56:29.830Z,20.43
2022-08-23T16:58:56.908Z,20.53
2022-08-23T17:01:23.593Z,20.40
2022-08-23T17:03:50.577Z,20.38
2022-08-23T17:06:17.181Z,20.34
2022-08-23T17:08:43.797Z,20.29
2022-08-23T17:11:13.728Z,20.14
2022-08-23T17:13:40.844Z,20.08
2022-08-23T17:16:08.302Z,20.12
2022-08-23T17:18:34.848Z,20.00
2022-08-23T17:21:01.499Z,19.83
2022-08-23T17:23:28.476Z,19.77
2022-08-23T17:25:55.010Z,19.70
2022-08-23T17:28:23.056Z,19.64
2022-08-23T17:30:49.917Z,19.52
2022-08-23T17:33:16.518Z,19.58
2022-08-23T17:35:43.399Z,19.47
2022-08-23T17:38:10.114Z,19.45
2022-08-23T17:40:39.760Z,19.32
2022-08-23T17:43:06.828Z,19.27
2022-08-23T17:45:40.419Z,19.28
2022-08-23T17:48:07.286Z,19.18
2022-08-23T17:50:34.627Z,19.20
2022-08-23T17:53:04.339Z,19.19
2022-08-23T17:55:33.838Z,19.17
2022-08-23T17:58:04.031Z,19.15
2022-08-23T18:00:35.409Z,19.13
2022-08-23T18:03:02.062Z,19.05
2022-08-23T18:05:30.243Z,18.96
2022-08-23T18:07:58.357Z,19.02
2022-08-23T18:10:25.375Z,18.95
2022-08-23T18:12:52.231Z,18.95
2022-08-23T18:15:18.986Z,18.91
2022-08-23T18:17:45.487Z,18.93
2022-08-23T18:20:12.578Z,18.91
2022-08-23T18:22:40.026Z,18.82
2022-08-23T18:25:08.854Z,18.74
2022-08-23T18:27:54.421Z,18.58
2022-08-23T18:30:21.040Z,18.46
2022-08-23T18:32:47.620Z,18.56
2022-08-23T18:35:14.270Z,18.67
2022-08-23T18:37:41.762Z,18.71
2022-08-23T18:40:10.101Z,18.74
2022-08-23T18:42:37.464Z,18.84
2022-08-23T18:45:05.420Z,18.97
2022-08-23T18:47:31.992Z,18.99
2022-08-23T18:49:58.507Z,18.90
2022-08-23T18:52:27.079Z,18.83
2022-08-23T18:54:57.497Z,18.82
2022-08-23T18:57:24.271Z,18.85
2022-08-23T18:59:50.911Z,18.82
2022-08-23T19:02:17.791Z,18.98
2022-08-23T19:04:45.228Z,18.98
2022-08-23T19:07:12.906Z,19.03
2022-08-23T19:09:50.443Z,18.94
2022-08-23T19:12:17.697Z,18.89
2022-08-23T19:14:44.254Z,18.99
2022-08-23T19:17:10.784Z,19.02
2022-08-23T19:19:37.745Z,18.92
2022-08-23T19:22:04.730Z,18.98
2022-08-23T19:24:31.912Z,18.94
2022-08-23T19:26:58.863Z,19.04
2022-08-23T19:29:26.515Z,19.01
2022-08-23T19:31:53.527Z,18.97
2022-08-23T19:34:20.798Z,19.02
2022-08-23T19:36:53.605Z,19.02
2022-08-23T19:39:26.137Z,18.93
2022-08-23T19:41:52.998Z,19.01
2022-08-23T19:44:20.148Z,19.04
2022-08-23T19:46:46.750Z,18.91
2022-08-23T19:49:14.663Z,18.95
2022-08-23T19:51:41.856Z,18.84
2022-08-23T19:54:11.328Z,18.82
2022-08-23T19:56:45.816Z,18.77
2022-08-23T19:59:25.292Z,18.73
2022-08-23T20:01:53.702Z,18.81
2022-08-23T20:04:21.409Z,18.77
2022-08-23T20:06:48.730Z,18.77
2022-08-23T20:09:15.968Z,18.79
2022-08-23T20:11:42.622Z,18.71
2022-08-23T20:14:10.056Z,18.77
2022-08-23T20:16:38.251Z,18.79
2022-08-23T20:19:09.405Z,18.76
2022-08-23T20:21:36.198Z,18.83
2022-08-23T20:24:06.037Z,18.84
2022-08-23T20:26:40.808Z,18.96
2022-08-23T20:29:10.221Z,18.90
2022-08-23T20:31:39.639Z,18.89
2022-08-23T20:34:08.827Z,19.02
2022-08-23T20:36:35.858Z,19.08
2022-08-23T20:39:02.497Z,19.13
2022-08-23T20:41:32.234Z,18.99
2022-08-23T20:44:00.643Z,18.95
2022-08-23T20:46:27.325Z,18.84
2022-08-23T20:48:57.433Z,18.90
2022-08-23T20:51:25.268Z,18.96
2022-08-23T20:53:51.940Z,18.88
2022-08-23T20:56:18.978Z,18.87
2022-08-23T20:58:47.277Z,18.87
2022-08-23T21:01:15.894Z,18.75
2022-08-23T21:03:43.208Z,18.72
2022-08-23T21:06:23.513Z,18.77
2022-08-23T21:08:53.979Z,18.71
2022-08-23T21:11:21.915Z,18.71
2022-08-23T21:13:49.318Z,18.67
2022-08-23T21:16:16.893Z,18.61
2022-08-23T21:18:44.095Z,18.47
2022-08-23T21:21:11.356Z,18.46
2022-08-23T21:23:38.484Z,18.42
2022-08-23T21:26:06.611Z,18.33
2022-08-23T21:28:33.481Z,18.35
2022-08-23T21:31:15.205Z,18.31
2022-08-23T21:33:42.314Z,18.19
2022-08-23T21:36:10.463Z,18.11
2022-08-23T21:38:37.642Z,18.01
2022-08-23T21:41:09.039Z,17.92
2022-08-23T21:43:37.334Z,17.86
2022-08-23T21:46:05.440Z,17.82
2022-08-23T21:48:32.347Z,17.86
2022-08-23T21:51:00.006Z,17.84
2022-08-23T21:53:26.999Z,17.87
2022-08-23T21:55:53.660Z,17.93
2022-08-23T21:58:20.717Z,18.04
2022-08-23T22:00:47.309Z,18.05
2022-08-23T22:03:13.912Z,18.19
2022-08-23T22:05:41.684Z,18.13
2022-08-23T22:08:08.531Z,18.10
2022-08-23T22:10:37.636Z,18.13
2022-08-23T22:13:05.742Z,18.16
2022-08-23T22:15:32.926Z,18.28
2022-08-23T22:18:00.690Z,18.16
2022-08-23T22:20:28.272Z,18.14
2022-08-23T22:22:55.202Z,18.08
2022-08-23T22:25:21.865Z,18.10
2022-08-23T22:27:48.720Z,18.11
2022-08-23T22:30:16.537Z,18.07
2022-08-23T22:32:44.491Z,18.07
2022-08-23T22:35:12.151Z,18.13
2022-08-23T22:37:49.538Z,18.24
2022-08-23T22:40:20.436Z,18.24
2022-08-23T22:42:47.074Z,18.07
2022-08-23T22:45:14.379Z,17.94
2022-08-23T22:47:40.887Z,17.85
2022-08-23T22:50:07.830Z,17.79
2022-08-23T22:52:34.540Z,17.86
2022-08-23T22:55:01.061Z,17.92
2022-08-23T22:57:27.697Z,17.93
2022-08-23T22:59:55.045Z,17.94
2022-08-23T23:02:21.691Z,17.97
2022-08-23T23:04:48.663Z,18.03
2022-08-23T23:07:35.569Z,17.93
2022-08-23T23:10:02.184Z,17.89
2022-08-23T23:12:28.815Z,17.93
2022-08-23T23:14:55.410Z,17.89
2022-08-23T23:17:21.937Z,17.85
2022-08-23T23:20:06.735Z,17.71
2022-08-23T23:22:33.233Z,17.67
2022-08-23T23:25:02.337Z,17.68
2022-08-23T23:27:28.886Z,17.72
2022-08-23T23:29:55.405Z,17.74
2022-08-23T23:32:22.029Z,17.79
2022-08-23T23:34:48.799Z,17.84
2022-08-23T23:37:15.338Z,17.95
2022-08-23T23:39:41.937Z,18.01
2022-08-23T23:42:08.479Z,18.01
2022-08-23T23:44:34.924Z,18.04
2022-08-23T23:47:02.018Z,18.07
2022-08-23T23:49:32.596Z,18.17
2022-08-23T23:52:05.264Z,18.10
2022-08-23T23:54:33.810Z,18.10
2022-08-23T23:57:00.382Z,18.16
2022-08-23T23:59:27.711Z,18.17
